Time;durP1;ratioP1;P1;durP2;ratioP2;P2;SDS_P1;SDS_P2;PMS_P1;PMS_P2;Temp;Humidity;BMP_temperature;BMP_pressure;BME280_temperature;BME280_humidity;BME280_pressure;Samples;Min_cycle;Max_cycle;Signal;HPM_P1;HPM_P2
2023/08/26 00:01:44;;;;;;;3.03;1.00;;;18.00;99.90;;;;;;5034589;28;20021;-89
2023/08/26 00:04:10;;;;;;;4.22;1.38;;;18.10;99.90;;;;;;5016342;28;20505;-90
2023/08/26 00:06:36;;;;;;;4.28;1.20;;;18.10;99.90;;;;;;5015986;28;20080;-91
2023/08/26 00:09:02;;;;;;;1.75;1.02;;;17.90;99.90;;;;;;5005311;28;20520;-89
2023/08/26 00:11:28;;;;;;;2.00;1.13;;;18.00;99.90;;;;;;5013856;28;20084;-89
2023/08/26 00:13:54;;;;;;;6.47;1.30;;;18.00;99.90;;;;;;4996394;28;20026;-90
2023/08/26 00:16:20;;;;;;;4.20;1.15;;;18.00;99.90;;;;;;5032078;28;20030;-89
2023/08/26 00:18:47;;;;;;;2.55;1.20;;;18.00;99.90;;;;;;5016181;28;20477;-90
2023/08/26 00:21:14;;;;;;;2.80;1.17;;;18.00;99.90;;;;;;5011900;28;20033;-89
2023/08/26 00:23:40;;;;;;;2.83;1.30;;;17.90;99.90;;;;;;5033542;28;20056;-89
2023/08/26 00:26:05;;;;;;;2.65;1.50;;;17.70;99.90;;;;;;5033165;28;20056;-90
2023/08/26 00:28:31;;;;;;;2.80;1.20;;;17.80;99.90;;;;;;5026972;28;20026;-91
2023/08/26 00:31:00;;;;;;;4.97;1.40;;;17.80;99.90;;;;;;5004871;28;20048;-90
2023/08/26 00:33:29;;;;;;;4.10;1.40;;;17.80;99.90;;;;;;5020214;28;20377;-90
2023/08/26 00:35:54;;;;;;;2.90;1.30;;;17.90;99.90;;;;;;5032878;28;20163;-90
2023/08/26 00:38:20;;;;;;;3.50;1.40;;;17.90;99.90;;;;;;5027084;28;20514;-89
2023/08/26 00:40:46;;;;;;;4.38;1.30;;;17.70;99.90;;;;;;5007025;28;20021;-90
2023/08/26 00:43:11;;;;;;;2.90;1.40;;;17.80;99.90;;;;;;5015364;28;20025;-91
2023/08/26 00:45:40;;;;;;;4.63;1.25;;;17.80;99.90;;;;;;5032943;28;20021;-89
2023/08/26 00:48:08;;;;;;;2.42;1.17;;;17.90;99.90;;;;;;5001262;28;20490;-90
2023/08/26 00:50:35;;;;;;;4.82;1.50;;;17.70;99.90;;;;;;4995389;28;20379;-89
2023/08/26 00:53:02;;;;;;;4.03;1.40;;;17.80;99.90;;;;;;5013365;28;20068;-89
2023/08/26 00:55:28;;;;;;;1.25;1.00;;;17.80;99.90;;;;;;5015133;28;20029;-89
2023/08/26 00:57:55;;;;;;;2.97;1.15;;;17.80;99.90;;;;;;5029888;28;20344;-88
2023/08/26 01:00:22;;;;;;;4.60;1.85;;;17.80;99.90;;;;;;5011696;28;20529;-90
2023/08/26 01:02:49;;;;;;;4.88;1.30;;;17.70;99.90;;;;;;5007306;28;20405;-89
2023/08/26 01:05:15;;;;;;;2.67;1.10;;;17.80;99.90;;;;;;4995524;28;20077;-89
2023/08/26 01:07:44;;;;;;;4.15;1.15;;;17.80;99.90;;;;;;4995366;28;20406;-90
2023/08/26 01:10:10;;;;;;;5.20;1.48;;;17.80;99.90;;;;;;5000945;28;20040;-88
2023/08/26 01:13:02;;;;;;;4.05;1.40;;;17.80;99.90;;;;;;5012397;28;20040;-90
2023/08/26 01:15:29;;;;;;;1.67;1.10;;;17.70;99.90;;;;;;4997719;28;20029;-89
2023/08/26 01:17:56;;;;;;;4.60;1.35;;;17.70;99.90;;;;;;5020206;28;20018;-88
2023/08/26 01:20:24;;;;;;;2.22;1.05;;;17.60;99.90;;;;;;4995812;28;20038;-89
2023/08/26 01:22:51;;;;;;;4.97;1.63;;;17.60;99.90;;;;;;4995821;28;20521;-89
2023/08/26 01:25:17;;;;;;;6.15;1.58;;;17.60;99.90;;;;;;5001316;28;20047;-90
2023/08/26 01:27:43;;;;;;;6.18;1.30;;;17.60;99.90;;;;;;5047953;28;20242;-90
2023/08/26 01:30:10;;;;;;;2.97;1.38;;;17.60;99.90;;;;;;5029634;28;20160;-90
2023/08/26 01:32:50;;;;;;;9.03;1.30;;;17.60;99.90;;;;;;5012393;28;20033;-90
2023/08/26 01:35:27;;;;;;;3.40;1.25;;;17.50;99.90;;;;;;5013190;28;20029;-89
2023/08/26 01:37:54;;;;;;;5.35;1.40;;;17.50;99.90;;;;;;5005204;28;20562;-88
2023/08/26 01:40:21;;;;;;;2.13;1.20;;;17.40;99.90;;;;;;5016511;28;20119;-89
2023/08/26 01:42:49;;;;;;;3.75;1.23;;;17.40;99.90;;;;;;5004487;28;20018;-88
2023/08/26 01:45:14;;;;;;;5.45;1.30;;;17.40;99.90;;;;;;5027364;28;20053;-88
2023/08/26 01:47:40;;;;;;;5.00;1.20;;;17.40;99.90;;;;;;4994399;28;20030;-89
2023/08/26 01:50:06;;;;;;;3.15;1.67;;;17.30;99.90;;;;;;4994174;28;20083;-89
2023/08/26 01:52:32;;;;;;;2.53;1.10;;;17.30;99.90;;;;;;4994355;28;20394;-88
2023/08/26 01:54:57;;;;;;;3.45;1.25;;;17.30;99.90;;;;;;4995547;28;20030;-89
2023/08/26 01:57:23;;;;;;;1.77;0.98;;;17.30;99.90;;;;;;4994857;28;20117;-88
2023/08/26 01:59:49;;;;;;;1.58;1.30;;;17.30;99.90;;;;;;4994865;28;20010;-88
2023/08/26 02:02:14;;;;;;;1.75;1.15;;;17.30;99.90;;;;;;4993956;28;20030;-90
2023/08/26 02:04:40;;;;;;;2.90;1.10;;;17.20;99.90;;;;;;4994487;28;20120;-90
2023/08/26 02:07:06;;;;;;;2.42;0.90;;;17.20;99.90;;;;;;4994612;28;20030;-89
2023/08/26 02:09:33;;;;;;;3.60;1.27;;;17.20;99.90;;;;;;5021223;28;20029;-89
2023/08/26 02:11:58;;;;;;;2.97;1.33;;;17.10;99.90;;;;;;4996888;28;20033;-90
2023/08/26 02:14:24;;;;;;;4.32;1.23;;;17.10;99.90;;;;;;5010375;28;20032;-91
2023/08/26 02:16:50;;;;;;;2.42;1.15;;;17.00;99.90;;;;;;4995661;28;20042;-91
2023/08/26 02:19:16;;;;;;;2.45;1.13;;;17.00;99.90;;;;;;4993782;28;20093;-91
2023/08/26 02:21:41;;;;;;;2.72;1.25;;;17.00;99.90;;;;;;5011575;28;20367;-90
2023/08/26 02:24:07;;;;;;;7.15;1.25;;;17.00;99.90;;;;;;4993809;28;20030;-91
2023/08/26 02:26:33;;;;;;;3.60;1.33;;;17.00;99.90;;;;;;4993848;28;20036;-91
2023/08/26 02:28:58;;;;;;;2.88;1.25;;;16.90;99.90;;;;;;4994007;28;20397;-90
2023/08/26 02:31:24;;;;;;;3.70;1.40;;;16.90;99.90;;;;;;5007437;28;20037;-91
2023/08/26 02:33:50;;;;;;;2.75;1.23;;;16.90;99.90;;;;;;5011394;28;20394;-92
2023/08/26 02:36:15;;;;;;;3.00;1.20;;;16.90;99.90;;;;;;4993474;28;20693;-91
2023/08/26 02:38:41;;;;;;;4.22;1.45;;;16.90;99.90;;;;;;4993318;28;20034;-91
2023/08/26 02:41:07;;;;;;;5.88;1.63;;;16.80;99.90;;;;;;4993498;28;20048;-92
2023/08/26 02:43:33;;;;;;;3.50;1.30;;;16.70;99.90;;;;;;4993388;28;20022;-91
2023/08/26 02:45:58;;;;;;;1.80;1.10;;;16.70;99.90;;;;;;5016661;28;20088;-91
2023/08/26 02:48:26;;;;;;;6.25;1.25;;;16.70;99.90;;;;;;5013620;28;20107;-90
2023/08/26 02:50:55;;;;;;;3.03;1.40;;;16.70;99.90;;;;;;5013770;28;20122;-91
2023/08/26 02:53:22;;;;;;;7.63;1.52;;;16.70;99.90;;;;;;5013382;28;20515;-90
2023/08/26 02:55:48;;;;;;;2.67;1.20;;;16.60;99.90;;;;;;5007708;28;20401;-91
2023/08/26 02:58:21;;;;;;;4.32;1.33;;;16.60;99.90;;;;;;5011544;28;20497;-92
2023/08/26 03:00:47;;;;;;;2.80;1.25;;;16.60;99.90;;;;;;5009634;28;20274;-90
2023/08/26 03:03:13;;;;;;;3.80;1.23;;;16.60;99.90;;;;;;5024935;28;20083;-90
2023/08/26 03:05:39;;;;;;;1.88;1.20;;;16.60;99.90;;;;;;5011344;28;20025;-90
2023/08/26 03:08:05;;;;;;;2.63;1.45;;;16.60;99.90;;;;;;5012159;28;20026;-89
2023/08/26 03:10:31;;;;;;;2.03;1.15;;;16.60;99.90;;;;;;5026018;28;20512;-89
2023/08/26 03:12:58;;;;;;;3.75;1.27;;;16.60;99.90;;;;;;4994173;28;20037;-92
2023/08/26 03:15:27;;;;;;;2.63;1.52;;;16.60;99.90;;;;;;5010869;28;20105;-87
2023/08/26 03:17:53;;;;;;;2.50;1.30;;;16.60;99.90;;;;;;5009714;28;20049;-90
2023/08/26 03:20:19;;;;;;;2.63;1.35;;;16.60;99.90;;;;;;5018710;28;20083;-90
2023/08/26 03:22:45;;;;;;;6.53;1.50;;;16.50;99.90;;;;;;5015771;28;20500;-90
2023/08/26 03:25:11;;;;;;;3.92;1.45;;;16.50;99.90;;;;;;5015567;28;20029;-88
2023/08/26 03:27:37;;;;;;;3.25;1.17;;;16.50;99.90;;;;;;5015784;28;20029;-90
2023/08/26 03:30:03;;;;;;;2.33;1.40;;;16.40;99.90;;;;;;5033873;28;20030;-90
2023/08/26 03:32:29;;;;;;;4.88;1.40;;;16.40;99.90;;;;;;5034409;28;20033;-90
2023/08/26 03:34:54;;;;;;;4.97;1.38;;;16.50;99.90;;;;;;5017179;28;20121;-89
2023/08/26 03:37:20;;;;;;;1.88;1.23;;;16.60;99.90;;;;;;5034173;28;20101;-89
2023/08/26 03:39:46;;;;;;;1.95;1.25;;;16.60;99.90;;;;;;5015799;28;20112;-89
2023/08/26 03:42:11;;;;;;;3.08;1.15;;;16.60;99.90;;;;;;5007798;28;20057;-88
2023/08/26 03:44:40;;;;;;;2.92;1.15;;;16.60;99.90;;;;;;5019674;28;20178;-90
2023/08/26 03:47:06;;;;;;;2.20;1.38;;;16.60;99.90;;;;;;5021762;28;20030;-90
2023/08/26 03:49:31;;;;;;;4.70;1.50;;;16.60;99.90;;;;;;5023721;28;20504;-90
2023/08/26 03:51:57;;;;;;;2.40;1.48;;;16.60;99.90;;;;;;5012129;28;20390;-90
2023/08/26 03:54:24;;;;;;;4.30;1.50;;;16.60;99.90;;;;;;5010299;28;20063;-90
2023/08/26 03:56:49;;;;;;;3.58;1.30;;;16.50;99.90;;;;;;5006532;28;20280;-89
2023/08/26 03:59:15;;;;;;;1.20;1.10;;;16.50;99.90;;;;;;5012413;28;20037;-92
2023/08/26 04:01:41;;;;;;;3.08;1.25;;;16.50;99.90;;;;;;5006053;28;20489;-88
2023/08/26 04:04:07;;;;;;;2.20;1.10;;;16.50;99.90;;;;;;5002906;28;20090;-90
2023/08/26 04:06:33;;;;;;;1.85;1.10;;;16.50;99.90;;;;;;5012351;28;20104;-90
2023/08/26 04:09:02;;;;;;;3.45;1.45;;;16.50;99.90;;;;;;5013796;28;20029;-89
2023/08/26 04:11:33;;;;;;;3.83;1.30;;;16.50;99.90;;;;;;5016260;28;20037;-90
2023/08/26 04:13:58;;;;;;;2.00;1.35;;;16.50;99.90;;;;;;5016519;28;20026;-90
2023/08/26 04:16:24;;;;;;;2.63;1.30;;;16.40;99.90;;;;;;5015737;28;20033;-90
2023/08/26 04:18:50;;;;;;;4.35;1.65;;;16.40;99.90;;;;;;5013020;28;20410;-89
2023/08/26 04:21:15;;;;;;;2.90;1.25;;;16.30;99.90;;;;;;4998864;28;20601;-89
2023/08/26 04:23:45;;;;;;;1.77;1.30;;;16.30;99.90;;;;;;5001653;28;20022;-92
2023/08/26 04:26:10;;;;;;;2.35;1.33;;;16.30;99.90;;;;;;5014950;28;20025;-90
2023/08/26 04:28:36;;;;;;;4.78;1.48;;;16.30;99.90;;;;;;5019481;28;20052;-90
2023/08/26 04:31:02;;;;;;;1.50;1.30;;;16.30;99.90;;;;;;5014355;28;20033;-92
2023/08/26 04:33:29;;;;;;;2.40;1.50;;;16.30;99.90;;;;;;5011720;28;20035;-91
2023/08/26 04:35:54;;;;;;;4.55;1.25;;;16.30;99.90;;;;;;5010737;28;20120;-90
2023/08/26 04:38:20;;;;;;;2.22;1.40;;;16.20;99.90;;;;;;5023091;28;20061;-91
2023/08/26 04:40:46;;;;;;;4.63;1.60;;;16.20;99.90;;;;;;5032369;28;20022;-90
2023/08/26 04:43:17;;;;;;;2.00;1.27;;;16.20;99.90;;;;;;5031131;28;20037;-92
2023/08/26 04:45:43;;;;;;;3.83;1.40;;;16.20;99.90;;;;;;5014806;28;20436;-91
2023/08/26 04:48:09;;;;;;;3.28;1.50;;;16.20;99.90;;;;;;5014463;28;20025;-88
2023/08/26 04:50:35;;;;;;;4.97;1.40;;;16.20;99.90;;;;;;5030989;28;20033;-89
2023/08/26 04:53:01;;;;;;;3.95;2.08;;;16.10;99.90;;;;;;5033059;28;20029;-89
2023/08/26 04:55:26;;;;;;;2.53;1.38;;;16.10;99.90;;;;;;4996108;28;20026;-89
2023/08/26 04:57:53;;;;;;;2.80;1.48;;;16.10;99.90;;;;;;4994851;28;20029;-89
2023/08/26 05:00:18;;;;;;;3.33;1.30;;;16.20;99.90;;;;;;4994675;28;20030;-89
2023/08/26 05:02:44;;;;;;;4.03;1.48;;;16.10;99.90;;;;;;5003062;28;20022;-89
2023/08/26 05:05:10;;;;;;;4.32;1.50;;;16.10;99.90;;;;;;5012783;28;20030;-90
2023/08/26 05:07:35;;;;;;;4.28;1.55;;;16.10;99.90;;;;;;5022643;28;20033;-89
2023/08/26 05:10:03;;;;;;;3.45;1.40;;;16.10;99.90;;;;;;5014291;28;20021;-89
2023/08/26 05:12:30;;;;;;;1.77;1.35;;;16.10;99.90;;;;;;5014819;28;20036;-90
2023/08/26 05:14:56;;;;;;;3.33;1.65;;;16.10;99.90;;;;;;5029617;28;20112;-90
2023/08/26 05:17:21;;;;;;;2.88;1.40;;;16.10;99.90;;;;;;5000148;28;20069;-90
2023/08/26 05:19:47;;;;;;;1.52;1.42;;;16.10;99.90;;;;;;4995514;28;20025;-90
2023/08/26 05:22:13;;;;;;;3.78;1.55;;;16.10;99.90;;;;;;5010351;28;20033;-90
2023/08/26 05:24:39;;;;;;;4.50;1.73;;;16.10;99.90;;;;;;5014588;28;20021;-89
2023/08/26 05:27:05;;;;;;;4.45;1.83;;;16.10;99.90;;;;;;5012871;28;20025;-90
2023/08/26 05:29:33;;;;;;;4.07;1.60;;;16.10;99.90;;;;;;5031565;28;20048;-91
2023/08/26 05:31:59;;;;;;;3.00;1.60;;;16.10;99.90;;;;;;5002265;28;20041;-89
2023/08/26 05:34:25;;;;;;;5.38;1.42;;;16.10;99.90;;;;;;5003091;28;20077;-89
2023/08/26 05:36:51;;;;;;;6.00;1.70;;;16.00;99.90;;;;;;5024913;28;20061;-90
2023/08/26 05:39:17;;;;;;;5.18;1.40;;;16.00;99.90;;;;;;5029295;28;20425;-94
2023/08/26 05:41:42;;;;;;;2.45;1.20;;;16.00;99.90;;;;;;5032018;28;20079;-90
2023/08/26 05:44:08;;;;;;;3.58;1.27;;;16.00;99.90;;;;;;5014200;28;20429;-92
2023/08/26 05:46:33;;;;;;;4.75;1.10;;;16.00;99.90;;;;;;5014932;28;20091;-93
2023/08/26 05:48:59;;;;;;;5.82;1.65;;;16.10;99.90;;;;;;5013765;28;20111;-92
2023/08/26 05:51:25;;;;;;;6.50;1.20;;;16.00;99.90;;;;;;5040582;28;20041;-91
2023/08/26 05:53:50;;;;;;;2.03;1.20;;;16.00;99.90;;;;;;5029420;28;20083;-91
2023/08/26 05:56:16;;;;;;;3.53;1.52;;;16.10;99.90;;;;;;5013572;28;20086;-90
2023/08/26 05:58:42;;;;;;;3.53;2.15;;;16.10;99.90;;;;;;5013891;28;20381;-92
2023/08/26 06:01:07;;;;;;;4.70;1.63;;;16.10;99.90;;;;;;5013601;28;20399;-89
2023/08/26 06:03:33;;;;;;;6.13;1.80;;;16.10;99.90;;;;;;5013093;28;20535;-92
2023/08/26 06:05:58;;;;;;;6.82;1.63;;;16.10;99.90;;;;;;5013614;28;20116;-90
2023/08/26 06:08:24;;;;;;;2.70;1.20;;;16.20;99.90;;;;;;5030415;28;20359;-90
2023/08/26 06:10:56;;;;;;;3.13;1.40;;;16.20;99.90;;;;;;5030041;28;20025;-92
2023/08/26 06:13:22;;;;;;;5.03;1.55;;;16.30;99.90;;;;;;5029963;28;20041;-90
2023/08/26 06:15:56;;;;;;;4.22;1.73;;;16.30;99.90;;;;;;5028780;28;20021;-91
2023/08/26 06:18:23;;;;;;;4.38;1.48;;;16.30;99.90;;;;;;5013528;28;20029;-91
2023/08/26 06:20:50;;;;;;;4.03;1.58;;;16.40;99.90;;;;;;5013169;28;20447;-91
2023/08/26 06:23:16;;;;;;;4.05;1.42;;;16.30;99.90;;;;;;5013229;28;20090;-88
2023/08/26 06:25:55;;;;;;;4.10;1.50;;;16.30;99.90;;;;;;5027033;28;20068;-92
2023/08/26 06:28:21;;;;;;;5.60;1.88;;;16.30;99.90;;;;;;5000319;28;20041;-92
2023/08/26 06:30:47;;;;;;;2.35;1.45;;;16.20;99.90;;;;;;5012956;28;20128;-92
2023/08/26 06:33:13;;;;;;;4.65;1.55;;;16.30;99.90;;;;;;5012992;28;20164;-90
2023/08/26 06:35:39;;;;;;;7.22;1.88;;;16.30;99.90;;;;;;5012723;28;20057;-91
2023/08/26 06:38:04;;;;;;;7.50;1.52;;;16.30;99.90;;;;;;5013371;28;20025;-88
2023/08/26 06:40:34;;;;;;;5.68;1.40;;;16.40;99.90;;;;;;5008284;28;20132;-91
2023/08/26 06:43:03;;;;;;;7.43;1.40;;;16.30;99.90;;;;;;5006837;28;20040;-89
2023/08/26 06:45:30;;;;;;;4.40;1.45;;;16.30;99.90;;;;;;5029861;28;20024;-88
2023/08/26 06:47:56;;;;;;;5.13;1.50;;;16.40;99.90;;;;;;5029947;28;20033;-90
2023/08/26 06:50:23;;;;;;;5.15;1.63;;;16.40;99.90;;;;;;5029748;28;20021;-91
2023/08/26 06:52:49;;;;;;;5.28;1.58;;;16.40;99.90;;;;;;5012398;28;20080;-89
2023/08/26 06:55:18;;;;;;;4.07;1.50;;;16.50;99.90;;;;;;5008367;28;20029;-91
2023/08/26 06:57:44;;;;;;;8.32;1.60;;;16.40;99.90;;;;;;5007184;28;20511;-91
2023/08/26 07:00:12;;;;;;;5.28;1.60;;;16.40;99.90;;;;;;5029902;28;20103;-89
2023/08/26 07:02:38;;;;;;;6.88;1.40;;;16.50;99.90;;;;;;5027920;28;20033;-91
2023/08/26 07:05:04;;;;;;;5.32;1.55;;;16.50;99.90;;;;;;5030236;28;20029;-91
2023/08/26 07:07:30;;;;;;;6.03;1.50;;;16.60;99.90;;;;;;5028507;28;20120;-90
2023/08/26 07:09:56;;;;;;;5.45;1.52;;;16.60;99.90;;;;;;5029438;28;20105;-90
2023/08/26 07:12:21;;;;;;;3.55;1.20;;;16.70;99.90;;;;;;5030027;28;20041;-90
2023/08/26 07:14:47;;;;;;;8.07;1.45;;;16.80;99.90;;;;;;5012974;28;20025;-91
2023/08/26 07:17:16;;;;;;;9.05;1.50;;;16.90;99.90;;;;;;5012666;28;20061;-91
2023/08/26 07:19:42;;;;;;;7.03;1.40;;;17.00;99.90;;;;;;5012432;28;20060;-93
2023/08/26 07:22:08;;;;;;;5.10;1.42;;;17.10;99.90;;;;;;5013734;28;20045;-91
2023/08/26 07:24:34;;;;;;;7.05;1.50;;;17.10;99.90;;;;;;5012973;28;20029;-90
2023/08/26 07:26:59;;;;;;;5.03;1.30;;;17.10;99.90;;;;;;5012466;28;20034;-90
2023/08/26 07:29:25;;;;;;;8.50;1.60;;;17.20;99.90;;;;;;5012511;28;20022;-89
2023/08/26 07:31:51;;;;;;;7.47;1.27;;;17.40;99.90;;;;;;5012230;28;20073;-89
2023/08/26 07:34:16;;;;;;;5.05;1.45;;;17.40;99.90;;;;;;5011605;28;20444;-89
2023/08/26 07:36:42;;;;;;;8.57;1.63;;;17.40;99.90;;;;;;5030171;28;20037;-93
2023/08/26 07:39:08;;;;;;;5.70;1.60;;;17.40;99.90;;;;;;5030930;28;20026;-91
2023/08/26 07:41:35;;;;;;;6.07;1.65;;;17.40;99.90;;;;;;5012218;28;20025;-89
2023/08/26 07:44:00;;;;;;;3.83;1.02;;;17.60;99.90;;;;;;5012087;28;20021;-90
2023/08/26 07:46:26;;;;;;;2.20;1.00;;;17.70;99.90;;;;;;5011142;28;20392;-89
2023/08/26 07:48:52;;;;;;;5.47;1.48;;;17.80;99.90;;;;;;5011997;28;20115;-90
2023/08/26 07:51:18;;;;;;;7.50;1.42;;;17.80;99.90;;;;;;5011284;28;20037;-88
2023/08/26 07:53:43;;;;;;;6.57;1.52;;;17.80;99.90;;;;;;5027897;28;20030;-89
2023/08/26 07:56:09;;;;;;;8.80;1.38;;;17.90;99.90;;;;;;5030450;28;20425;-91
2023/08/26 07:58:35;;;;;;;7.00;1.30;;;18.00;99.90;;;;;;5012367;28;20025;-91
2023/08/26 08:01:00;;;;;;;6.85;1.85;;;18.10;99.90;;;;;;5012189;28;20051;-93
2023/08/26 08:03:26;;;;;;;2.60;0.88;;;18.20;99.90;;;;;;5012089;28;20029;-90
2023/08/26 08:05:54;;;;;;;9.48;1.65;;;18.30;99.90;;;;;;5001266;28;20022;-91
2023/08/26 08:08:19;;;;;;;11.43;2.00;;;18.40;99.90;;;;;;5014796;28;20555;-92
2023/08/26 08:10:45;;;;;;;4.75;1.27;;;18.50;99.90;;;;;;5013479;28;20042;-91
2023/08/26 08:13:11;;;;;;;6.07;1.17;;;18.60;99.90;;;;;;5017606;28;20572;-91
2023/08/26 08:15:37;;;;;;;4.25;1.38;;;18.80;99.90;;;;;;5025247;28;20032;-93
2023/08/26 08:18:02;;;;;;;5.15;1.40;;;18.80;99.90;;;;;;5015938;28;20314;-90
2023/08/26 08:20:31;;;;;;;5.20;1.67;;;18.80;99.90;;;;;;5015029;28;20025;-92
2023/08/26 08:22:57;;;;;;;5.35;1.40;;;18.90;99.90;;;;;;5026358;28;20032;-90
2023/08/26 08:25:24;;;;;;;7.28;1.50;;;18.90;99.90;;;;;;5018037;28;20029;-92
2023/08/26 08:27:49;;;;;;;10.63;2.03;;;18.80;99.90;;;;;;5015404;28;20032;-89
2023/08/26 08:30:15;;;;;;;6.40;1.75;;;18.80;99.90;;;;;;5015889;28;20022;-91
2023/08/26 08:32:41;;;;;;;6.50;1.20;;;18.90;99.90;;;;;;5033672;28;20080;-91
2023/08/26 08:35:07;;;;;;;4.35;1.20;;;19.10;99.90;;;;;;5015489;28;20022;-90
2023/08/26 08:37:33;;;;;;;9.57;1.73;;;19.10;99.90;;;;;;5015503;28;20406;-92
2023/08/26 08:39:59;;;;;;;5.93;1.38;;;19.30;99.90;;;;;;5015518;28;20022;-90
2023/08/26 08:42:25;;;;;;;4.55;1.45;;;19.40;99.90;;;;;;5019324;28;20039;-90
2023/08/26 08:44:51;;;;;;;3.33;1.50;;;19.60;99.90;;;;;;5052617;28;20032;-92
2023/08/26 08:47:17;;;;;;;6.65;1.52;;;19.70;99.90;;;;;;5034633;28;20098;-90
2023/08/26 08:49:44;;;;;;;5.72;1.42;;;19.80;99.90;;;;;;5045805;28;20022;-90
2023/08/26 08:52:10;;;;;;;8.57;1.73;;;19.70;99.90;;;;;;5032849;28;20037;-91
2023/08/26 08:54:37;;;;;;;6.10;1.30;;;19.70;99.90;;;;;;5020553;28;20029;-91
2023/08/26 08:57:03;;;;;;;5.47;1.27;;;19.60;99.90;;;;;;5022034;28;20542;-92
2023/08/26 08:59:32;;;;;;;4.22;1.23;;;19.70;99.90;;;;;;5018043;28;20071;-91
2023/08/26 09:01:59;;;;;;;5.00;1.27;;;19.80;99.90;;;;;;5019991;28;20587;-93
2023/08/26 09:04:25;;;;;;;6.40;1.23;;;19.80;99.90;;;;;;5021689;28;20393;-92
2023/08/26 09:06:51;;;;;;;5.90;1.40;;;19.80;99.90;;;;;;5016072;28;20474;-91
2023/08/26 09:09:18;;;;;;;5.25;1.40;;;19.80;99.90;;;;;;5015214;28;20029;-93
2023/08/26 09:11:44;;;;;;;3.58;0.98;;;19.70;99.90;;;;;;5015162;28;20132;-94
2023/08/26 09:14:10;;;;;;;3.75;1.08;;;19.70;99.90;;;;;;5015140;28;20065;-92
2023/08/26 09:16:41;;;;;;;4.80;1.30;;;19.70;99.90;;;;;;5032852;28;20214;-93
2023/08/26 09:19:28;;;;;;;;;;;;;;;;;;;;;
2023/08/26 09:22:11;;;;;;;;;;;;;;;;;;;;;
2023/08/26 09:24:44;;;;;;;4.32;1.00;;;19.30;99.90;;;;;;5034314;28;20037;-93
2023/08/26 09:28:04;;;;;;;5.38;1.23;;;19.30;99.90;;;;;;5019135;28;20029;-91
2023/08/26 09:30:34;;;;;;;4.55;1.10;;;19.40;99.90;;;;;;5005542;28;20049;-90
2023/08/26 09:33:13;;;;;;;4.45;1.10;;;19.40;99.90;;;;;;5026129;28;20478;-91
2023/08/26 09:35:48;;;;;;;3.10;1.42;;;19.40;99.90;;;;;;5041755;28;20065;-91
2023/08/26 09:38:14;;;;;;;5.13;1.38;;;19.50;99.90;;;;;;5006347;28;20040;-93
2023/08/26 09:40:43;;;;;;;3.05;1.30;;;19.60;99.90;;;;;;5044111;28;20365;-91
2023/08/26 09:43:21;;;;;;;4.97;1.23;;;19.70;99.90;;;;;;5013127;28;20046;-92
2023/08/26 09:46:09;;;;;;;4.47;0.98;;;19.80;99.90;;;;;;5011105;28;20018;-91
2023/08/26 09:48:52;;;;;;;5.28;1.13;;;19.80;99.90;;;;;;5011807;28;20030;-91
2023/08/26 09:51:45;;;;;;;6.10;1.42;;;19.70;99.90;;;;;;5020052;28;20049;-90
2023/08/26 09:54:16;;;;;;;3.95;1.23;;;19.80;99.90;;;;;;5013901;28;20033;-91
2023/08/26 09:56:58;;;;;;;5.30;1.33;;;19.70;99.90;;;;;;5037057;28;20045;-91
2023/08/26 09:59:28;;;;;;;6.68;1.20;;;19.80;99.90;;;;;;5034687;28;20028;-91
2023/08/26 10:02:01;;;;;;;4.70;1.20;;;19.90;99.90;;;;;;5031752;28;20049;-89
2023/08/26 10:04:33;;;;;;;5.03;1.27;;;20.00;99.90;;;;;;5049674;28;20021;-89
2023/08/26 10:07:01;;;;;;;3.47;1.20;;;20.10;99.90;;;;;;5050763;28;20510;-90
2023/08/26 10:09:35;;;;;;;4.88;1.40;;;20.30;99.90;;;;;;5030430;28;20037;-91
2023/08/26 10:12:05;;;;;;;3.85;1.30;;;20.50;99.90;;;;;;5019543;28;20042;-91
2023/08/26 10:14:33;;;;;;;4.78;1.00;;;20.60;99.90;;;;;;5033323;28;20048;-90
2023/08/26 10:17:07;;;;;;;2.50;0.90;;;20.60;99.90;;;;;;5032655;28;20505;-95
2023/08/26 10:19:34;;;;;;;4.38;1.10;;;20.60;99.90;;;;;;5031150;28;20057;-91
2023/08/26 10:22:01;;;;;;;1.48;1.10;;;20.70;99.90;;;;;;5030906;28;20044;-92
2023/08/26 10:24:28;;;;;;;2.53;1.00;;;20.80;99.90;;;;;;5015963;28;20089;-92
2023/08/26 10:26:54;;;;;;;3.55;0.98;;;20.80;99.90;;;;;;5030755;28;20022;-93
2023/08/26 10:29:20;;;;;;;4.05;1.52;;;20.80;99.90;;;;;;5033493;28;20400;-89
2023/08/26 10:31:46;;;;;;;3.30;1.10;;;20.80;99.90;;;;;;5013511;28;20091;-90
2023/08/26 10:34:14;;;;;;;3.10;1.17;;;20.70;99.90;;;;;;5030769;28;20036;-91
2023/08/26 10:36:41;;;;;;;2.05;0.95;;;20.70;99.90;;;;;;5030816;28;20523;-91
2023/08/26 10:39:18;;;;;;;4.93;1.60;;;20.70;99.90;;;;;;5013135;28;20121;-91
2023/08/26 10:42:17;;;;;;;5.53;1.30;;;20.60;99.90;;;;;;5032580;28;20056;-91
2023/08/26 10:44:57;;;;;;;5.40;0.90;;;20.80;99.90;;;;;;4981749;28;20523;-94
2023/08/26 10:47:40;;;;;;;3.30;1.30;;;20.80;99.90;;;;;;5012936;28;20080;-93
2023/08/26 10:50:25;;;;;;;2.53;1.02;;;20.80;99.90;;;;;;5012385;28;20563;-91
2023/08/26 10:53:12;;;;;;;5.88;1.10;;;20.80;99.90;;;;;;5031310;28;20037;-91
2023/08/26 10:55:37;;;;;;;3.03;0.90;;;20.80;99.90;;;;;;5012717;28;20030;-91
2023/08/26 10:58:17;;;;;;;3.58;1.40;;;20.90;99.90;;;;;;5015195;28;20036;-93
2023/08/26 11:00:46;;;;;;;3.05;1.13;;;21.10;99.90;;;;;;5013524;28;20555;-91
2023/08/26 11:03:13;;;;;;;5.57;1.17;;;21.20;99.90;;;;;;5030506;28;20275;-91
2023/08/26 11:05:42;;;;;;;3.10;1.17;;;21.30;99.90;;;;;;5013065;28;20022;-94
2023/08/26 11:08:08;;;;;;;3.85;0.95;;;21.30;99.90;;;;;;5013774;28;20116;-93
2023/08/26 11:10:35;;;;;;;2.22;1.02;;;21.40;99.90;;;;;;5030799;28;20104;-90
2023/08/26 11:13:01;;;;;;;2.28;1.08;;;21.50;99.90;;;;;;5013488;28;20706;-91
2023/08/26 11:15:32;;;;;;;2.35;1.10;;;21.60;99.90;;;;;;5013268;28;20034;-92
2023/08/26 11:17:58;;;;;;;2.50;1.08;;;21.70;99.90;;;;;;5031071;28;20512;-90
2023/08/26 11:20:24;;;;;;;5.68;1.10;;;21.80;99.90;;;;;;4994665;28;20031;-91
2023/08/26 11:22:50;;;;;;;5.47;1.30;;;21.80;99.90;;;;;;4999099;28;20125;-93
2023/08/26 11:25:17;;;;;;;3.03;1.17;;;21.90;99.90;;;;;;4994134;28;20033;-94
2023/08/26 11:27:43;;;;;;;5.03;1.23;;;21.80;99.90;;;;;;4995133;28;20316;-92
2023/08/26 11:30:10;;;;;;;4.75;1.13;;;21.70;99.90;;;;;;4996233;28;20037;-91
2023/08/26 11:32:37;;;;;;;3.83;0.77;;;21.50;99.90;;;;;;4998276;28;20034;-91
2023/08/26 11:35:12;;;;;;;2.90;1.35;;;21.40;99.90;;;;;;5006553;28;20501;-90
2023/08/26 11:37:47;;;;;;;2.00;1.00;;;21.40;99.90;;;;;;5015171;28;20033;-94
2023/08/26 11:40:15;;;;;;;4.15;1.27;;;21.30;99.90;;;;;;5014185;28;20672;-93
2023/08/26 11:42:43;;;;;;;2.03;1.00;;;21.40;99.90;;;;;;5034558;28;20108;-90
2023/08/26 11:45:10;;;;;;;;;;;21.60;99.90;;;;;;5019466;28;20038;-92
2023/08/26 11:47:38;;;;;;;1.88;0.98;;;21.60;99.90;;;;;;5016811;28;19909;-92
2023/08/26 11:50:04;;;;;;;3.97;1.27;;;21.70;99.90;;;;;;5020835;28;20551;-92
2023/08/26 11:52:38;;;;;;;1.45;0.90;;;21.50;99.90;;;;;;5018609;28;20067;-92
2023/08/26 11:55:05;;;;;;;1.48;0.90;;;21.90;99.90;;;;;;5016009;28;20032;-92
2023/08/26 11:57:37;;;;;;;3.55;1.00;;;21.90;99.90;;;;;;5015341;28;20026;-91
2023/08/26 12:00:06;;;;;;;2.13;0.98;;;22.00;99.90;;;;;;5033978;28;20025;-91
2023/08/26 12:02:32;;;;;;;1.55;0.90;;;22.20;99.90;;;;;;5015257;28;20112;-91
2023/08/26 12:04:58;;;;;;;4.70;1.00;;;22.10;99.90;;;;;;5033383;28;20034;-94
2023/08/26 12:07:25;;;;;;;4.75;1.30;;;22.10;99.90;;;;;;5033875;28;20044;-89
2023/08/26 12:10:18;;;;;;;3.28;0.95;;;22.10;99.90;;;;;;5017432;28;20490;-93
2023/08/26 12:13:08;;;;;;;2.00;0.95;;;22.10;99.90;;;;;;5005349;28;20134;-93
2023/08/26 12:15:34;;;;;;;2.60;0.90;;;22.20;99.90;;;;;;5018455;28;20034;-92
2023/08/26 12:18:02;;;;;;;1.27;0.82;;;22.20;99.90;;;;;;5017662;28;20067;-91
2023/08/26 12:20:30;;;;;;;2.97;1.00;;;22.30;99.90;;;;;;5036291;28;20021;-91
2023/08/26 12:23:01;;;;;;;2.30;0.93;;;22.50;99.90;;;;;;5036345;28;20025;-89
2023/08/26 12:25:41;;;;;;;4.03;1.00;;;22.60;99.90;;;;;;5032990;28;20478;-92
2023/08/26 12:28:12;;;;;;;2.15;1.08;;;22.50;99.90;;;;;;5015393;28;20029;-90
2023/08/26 12:30:38;;;;;;;3.20;1.17;;;22.50;99.90;;;;;;5033125;28;20409;-92
2023/08/26 12:33:05;;;;;;;1.75;1.00;;;22.30;99.90;;;;;;5032167;28;20045;-92
2023/08/26 12:35:31;;;;;;;3.08;0.90;;;22.30;99.90;;;;;;5015400;28;20025;-93
2023/08/26 12:37:58;;;;;;;2.90;1.30;;;22.20;99.90;;;;;;5033632;28;20029;-91
2023/08/26 12:40:24;;;;;;;4.55;1.30;;;22.20;99.90;;;;;;5032891;28;20084;-90
2023/08/26 12:42:49;;;;;;;2.08;1.13;;;22.20;99.90;;;;;;5015322;28;20112;-90
2023/08/26 12:45:15;;;;;;;1.67;0.80;;;22.30;99.90;;;;;;5033054;28;20030;-93
2023/08/26 12:47:41;;;;;;;2.67;0.95;;;22.30;99.90;;;;;;5032752;28;20017;-90
2023/08/26 12:50:07;;;;;;;5.18;1.33;;;22.30;99.90;;;;;;5015109;28;20025;-92
2023/08/26 12:52:33;;;;;;;3.60;0.80;;;22.40;99.90;;;;;;5015828;28;20105;-92
2023/08/26 12:54:59;;;;;;;3.85;1.60;;;22.50;99.90;;;;;;5025777;28;20026;-93